Time;durP1;ratioP1;P1;durP2;ratioP2;P2;SDS_P1;SDS_P2;PMS_P1;PMS_P2;Temp;Humidity;BMP_temperature;BMP_pressure;BME280_temperature;BME280_humidity;BME280_pressure;Samples;Min_cycle;Max_cycle;Signal;HPM_P1;HPM_P2
2023/06/24 00:02:18;;;;;;;8.38;4.38;;;;;;;;;;4988855;28;101694;-76
2023/06/24 00:04:45;;;;;;;8.10;4.70;;;;;;;;;;4987486;28;99031;-75
2023/06/24 00:07:11;;;;;;;8.85;4.90;;;;;;;;;;4987893;28;98795;-75
2023/06/24 00:09:38;;;;;;;9.10;4.50;;;;;;;;;;4985286;28;98857;-75
2023/06/24 00:12:05;;;;;;;9.98;5.22;;;;;;;;;;4987727;28;98597;-75
2023/06/24 00:14:31;;;;;;;8.02;4.55;;;;;;;;;;4979992;28;98801;-76
2023/06/24 00:16:58;;;;;;;8.48;4.43;;;;;;;;;;4983746;28;100140;-75
2023/06/24 00:19:25;;;;;;;8.57;4.70;;;;;;;;;;4990146;28;101061;-75
2023/06/24 00:21:53;;;;;;;8.10;4.40;;;;;;;;;;4987370;28;100143;-76
2023/06/24 00:24:21;;;;;;;10.57;4.53;;;;;;;;;;4976714;28;99649;-76
2023/06/24 00:26:47;;;;;;;8.27;4.70;;;;;;;;;;4987656;28;99403;-76
2023/06/24 00:29:15;;;;;;;8.75;4.40;;;;;;;;;;4981823;28;98993;-76
2023/06/24 00:31:41;;;;;;;7.95;4.03;;;;;;;;;;4995983;28;104831;-75
2023/06/24 00:34:08;;;;;;;9.15;4.88;;;;;;;;;;4978733;28;98991;-75
2023/06/24 00:36:35;;;;;;;8.60;4.40;;;;;;;;;;4987735;28;98957;-75
2023/06/24 00:39:03;;;;;;;9.38;4.88;;;;;;;;;;4987123;28;99036;-75
2023/06/24 00:41:30;;;;;;;7.93;4.30;;;;;;;;;;4988789;28;98870;-75
2023/06/24 00:43:58;;;;;;;8.20;4.60;;;;;;;;;;4970203;28;101142;-75
2023/06/24 00:46:25;;;;;;;8.90;4.75;;;;;;;;;;4991353;28;98642;-75
2023/06/24 00:48:53;;;;;;;8.77;4.57;;;;;;;;;;4984004;28;99847;-75
2023/06/24 00:51:21;;;;;;;8.65;4.22;;;;;;;;;;4985359;28;100170;-75
2023/06/24 00:53:47;;;;;;;9.77;4.60;;;;;;;;;;4981051;28;98609;-75
2023/06/24 00:56:18;;;;;;;8.60;4.63;;;;;;;;;;4984559;28;100436;-75
2023/06/24 00:58:47;;;;;;;10.07;4.88;;;;;;;;;;4986805;28;99021;-76
2023/06/24 01:01:14;;;;;;;10.55;4.60;;;;;;;;;;4983692;28;98496;-75
2023/06/24 01:03:41;;;;;;;10.45;4.43;;;;;;;;;;4997627;28;105877;-75
2023/06/24 01:06:09;;;;;;;9.27;4.38;;;;;;;;;;4969271;28;98725;-76
2023/06/24 01:08:36;;;;;;;8.32;4.32;;;;;;;;;;4986503;28;100659;-76
2023/06/24 01:11:02;;;;;;;9.32;4.30;;;;;;;;;;4984768;28;102131;-76
2023/06/24 01:13:29;;;;;;;9.00;4.45;;;;;;;;;;4984253;28;99066;-76
2023/06/24 01:15:57;;;;;;;8.73;4.38;;;;;;;;;;4986789;28;106903;-76
2023/06/24 01:18:23;;;;;;;8.35;4.40;;;;;;;;;;4986141;28;99532;-76
2023/06/24 01:21:01;;;;;;;14.48;4.60;;;;;;;;;;4986544;28;98858;-76
2023/06/24 01:23:41;;;;;;;9.00;4.32;;;;;;;;;;4985863;28;100301;-75
2023/06/24 01:26:29;;;;;;;7.10;4.03;;;;;;;;;;4987802;28;101248;-75
2023/06/24 01:29:15;;;;;;;9.23;4.47;;;;;;;;;;4986786;28;98596;-75
2023/06/24 01:31:48;;;;;;;8.70;4.10;;;;;;;;;;4995183;28;104684;-75
2023/06/24 01:34:27;;;;;;;9.23;4.32;;;;;;;;;;4970040;28;99359;-76
2023/06/24 01:37:00;;;;;;;8.25;4.50;;;;;;;;;;4966805;28;99417;-77
2023/06/24 01:39:27;;;;;;;7.60;4.40;;;;;;;;;;4976476;28;100230;-77
2023/06/24 01:41:58;;;;;;;8.05;4.22;;;;;;;;;;4985711;28;98752;-76
2023/06/24 01:44:27;;;;;;;8.05;4.30;;;;;;;;;;4986001;28;98922;-75
2023/06/24 01:46:57;;;;;;;7.68;4.20;;;;;;;;;;4997386;28;100007;-76
2023/06/24 01:49:27;;;;;;;8.30;4.20;;;;;;;;;;4984824;28;98903;-75
2023/06/24 01:51:55;;;;;;;7.70;4.25;;;;;;;;;;4979699;28;101244;-76
2023/06/24 01:54:23;;;;;;;8.32;4.10;;;;;;;;;;4983799;28;98737;-75
2023/06/24 01:56:51;;;;;;;7.97;4.40;;;;;;;;;;4967521;28;100128;-75
2023/06/24 01:59:19;;;;;;;8.60;3.88;;;;;;;;;;4982518;28;103351;-77
2023/06/24 02:01:46;;;;;;;9.07;3.85;;;;;;;;;;4983432;28;98921;-74
2023/06/24 02:04:14;;;;;;;8.40;4.15;;;;;;;;;;4965883;28;98845;-77
2023/06/24 02:06:42;;;;;;;8.07;3.88;;;;;;;;;;4969211;28;99457;-75
2023/06/24 02:09:10;;;;;;;9.27;4.05;;;;;;;;;;4988724;28;98911;-74
2023/06/24 02:11:36;;;;;;;;;;;;;;;;;;4985448;28;99459;-74
2023/06/24 02:14:04;;;;;;;7.82;4.13;;;;;;;;;;4985320;28;98585;-75
2023/06/24 02:16:32;;;;;;;7.15;3.97;;;;;;;;;;4986326;28;105752;-75
2023/06/24 02:19:00;;;;;;;9.80;4.60;;;;;;;;;;4985249;28;99946;-76
2023/06/24 02:21:26;;;;;;;;;;;;;;;;;;4983768;28;98838;-73
2023/06/24 02:23:53;;;;;;;8.63;4.35;;;;;;;;;;4986379;28;123881;-75
2023/06/24 02:26:20;;;;;;;8.10;4.22;;;;;;;;;;4983319;28;102021;-75
2023/06/24 02:28:47;;;;;;;7.65;4.18;;;;;;;;;;4986104;28;98587;-75
2023/06/24 02:31:13;;;;;;;;;;;;;;;;;;4991851;28;101359;-73
2023/06/24 02:33:40;;;;;;;8.18;4.22;;;;;;;;;;4979154;28;98816;-73
2023/06/24 02:36:07;;;;;;;10.10;5.10;;;;;;;;;;4971346;28;99779;-73
2023/06/24 02:38:34;;;;;;;9.52;4.72;;;;;;;;;;4967752;28;101459;-73
2023/06/24 02:41:04;;;;;;;9.35;4.70;;;;;;;;;;4985964;28;98096;-73
2023/06/24 02:43:31;;;;;;;10.63;4.55;;;;;;;;;;4983693;28;99362;-73
2023/06/24 02:46:00;;;;;;;8.90;4.35;;;;;;;;;;4983572;28;102077;-74
2023/06/24 02:48:28;;;;;;;8.88;4.38;;;;;;;;;;4982565;28;99535;-74
2023/06/24 02:50:55;;;;;;;8.05;4.40;;;;;;;;;;4996475;28;102362;-76
2023/06/24 02:53:21;;;;;;;8.85;4.47;;;;;;;;;;4976703;28;101444;-73
2023/06/24 02:55:49;;;;;;;10.38;4.75;;;;;;;;;;4981424;28;101279;-76
2023/06/24 02:58:15;;;;;;;;;;;;;;;;;;4978526;28;99307;-76
2023/06/24 03:01:03;;;;;;;7.53;4.10;;;;;;;;;;4979769;28;99091;-76
2023/06/24 03:03:33;;;;;;;8.13;4.18;;;;;;;;;;4987439;28;101576;-75
2023/06/24 03:06:02;;;;;;;8.77;4.55;;;;;;;;;;4967306;28;100951;-75
2023/06/24 03:08:29;;;;;;;8.00;4.22;;;;;;;;;;4983542;28;98762;-77
2023/06/24 03:10:56;;;;;;;8.20;4.78;;;;;;;;;;4983598;28;101499;-76
2023/06/24 03:13:24;;;;;;;8.23;4.15;;;;;;;;;;4965149;28;100729;-76
2023/06/24 03:16:12;;;;;;;9.00;4.10;;;;;;;;;;4998437;28;98905;-77
2023/06/24 03:18:47;;;;;;;7.43;4.00;;;;;;;;;;4991003;28;101547;-76
2023/06/24 03:21:13;;;;;;;9.63;4.00;;;;;;;;;;4983243;28;98968;-76
2023/06/24 03:23:40;;;;;;;8.20;4.07;;;;;;;;;;4966183;28;100467;-77
2023/06/24 03:26:09;;;;;;;9.43;4.32;;;;;;;;;;4983111;28;101335;-77
2023/06/24 03:28:38;;;;;;;7.65;4.30;;;;;;;;;;4983944;28;98822;-77
2023/06/24 03:31:10;;;;;;;10.32;4.45;;;;;;;;;;4978519;28;101570;-76
2023/06/24 03:33:37;;;;;;;10.48;4.20;;;;;;;;;;4990960;28;102018;-76
2023/06/24 03:36:05;;;;;;;10.07;4.65;;;;;;;;;;4966817;28;98806;-76
2023/06/24 03:38:33;;;;;;;8.85;4.75;;;;;;;;;;4991084;28;101554;-76
2023/06/24 03:40:59;;;;;;;7.93;4.15;;;;;;;;;;4982195;28;99125;-77
2023/06/24 03:43:27;;;;;;;8.18;4.20;;;;;;;;;;4982006;28;101124;-76
2023/06/24 03:45:55;;;;;;;9.05;4.88;;;;;;;;;;4989069;28;101741;-77
2023/06/24 03:48:22;;;;;;;10.20;5.20;;;;;;;;;;4993360;28;98841;-77
2023/06/24 03:50:48;;;;;;;11.90;5.05;;;;;;;;;;4983830;28;101238;-77
2023/06/24 03:53:15;;;;;;;8.82;5.28;;;;;;;;;;4984350;28;101669;-76
2023/06/24 03:55:41;;;;;;;10.27;4.68;;;;;;;;;;4982375;28;98119;-77
2023/06/24 03:58:08;;;;;;;9.07;4.38;;;;;;;;;;4985130;28;101156;-76
2023/06/24 04:00:36;;;;;;;9.45;4.90;;;;;;;;;;4981484;28;99171;-75
2023/06/24 04:03:02;;;;;;;8.68;4.90;;;;;;;;;;4984679;28;100575;-76
2023/06/24 04:05:29;;;;;;;9.10;4.10;;;;;;;;;;4976261;28;99657;-75
2023/06/24 04:07:55;;;;;;;8.40;4.63;;;;;;;;;;4963740;28;98803;-75
2023/06/24 04:10:22;;;;;;;9.55;4.38;;;;;;;;;;4962662;28;99030;-75
2023/06/24 04:12:48;;;;;;;11.35;4.78;;;;;;;;;;4978987;28;102202;-77
2023/06/24 04:15:15;;;;;;;9.77;4.85;;;;;;;;;;4981794;28;98715;-76
2023/06/24 04:17:42;;;;;;;10.07;4.60;;;;;;;;;;4966719;28;105856;-75
2023/06/24 04:20:09;;;;;;;8.65;4.07;;;;;;;;;;4988118;28;99323;-77
2023/06/24 04:22:37;;;;;;;10.55;5.05;;;;;;;;;;4964337;28;99121;-76
2023/06/24 04:25:05;;;;;;;9.77;5.13;;;;;;;;;;4967960;28;101545;-75
2023/06/24 04:27:33;;;;;;;9.23;4.70;;;;;;;;;;4974767;28;99484;-76
2023/06/24 04:30:00;;;;;;;10.13;5.45;;;;;;;;;;4983669;28;99513;-76
2023/06/24 04:32:28;;;;;;;10.45;5.03;;;;;;;;;;4984881;28;102189;-77
2023/06/24 04:34:55;;;;;;;7.38;3.90;;;;;;;;;;4992882;28;98716;-77
2023/06/24 04:37:21;;;;;;;8.77;4.28;;;;;;;;;;4974736;28;101075;-74
2023/06/24 04:39:49;;;;;;;8.73;4.72;;;;;;;;;;4984893;28;102044;-76
2023/06/24 04:42:15;;;;;;;8.60;4.25;;;;;;;;;;4989524;28;98834;-75
2023/06/24 04:44:42;;;;;;;9.45;4.80;;;;;;;;;;4985385;28;101031;-76
2023/06/24 04:47:08;;;;;;;9.48;4.47;;;;;;;;;;4987316;28;99086;-77
2023/06/24 04:49:35;;;;;;;7.82;3.72;;;;;;;;;;4977850;28;99822;-76
2023/06/24 04:52:02;;;;;;;8.23;4.25;;;;;;;;;;4974749;28;102184;-75
2023/06/24 04:54:28;;;;;;;8.48;3.85;;;;;;;;;;4986897;28;99324;-76
2023/06/24 04:56:55;;;;;;;9.43;3.75;;;;;;;;;;4982919;28;98768;-75
2023/06/24 04:59:22;;;;;;;9.40;3.92;;;;;;;;;;4985257;28;99147;-75
2023/06/24 05:01:48;;;;;;;7.95;3.80;;;;;;;;;;4986868;28;98599;-76
2023/06/24 05:04:15;;;;;;;8.82;3.90;;;;;;;;;;4992788;28;99085;-76
2023/06/24 05:06:41;;;;;;;7.13;3.30;;;;;;;;;;4967234;28;98824;-77
2023/06/24 05:09:08;;;;;;;9.50;4.40;;;;;;;;;;4981912;28;101515;-77
2023/06/24 05:11:35;;;;;;;8.20;4.10;;;;;;;;;;4989796;28;100729;-77
2023/06/24 05:14:01;;;;;;;9.77;4.45;;;;;;;;;;4986587;28;98603;-77
2023/06/24 05:16:28;;;;;;;9.18;4.30;;;;;;;;;;4986469;28;101114;-77
2023/06/24 05:18:54;;;;;;;7.78;3.78;;;;;;;;;;4992618;28;99161;-77
2023/06/24 05:21:21;;;;;;;8.02;3.60;;;;;;;;;;4970270;28;98667;-76
2023/06/24 05:23:47;;;;;;;8.65;4.18;;;;;;;;;;4965030;28;101232;-77
2023/06/24 05:26:14;;;;;;;7.18;3.13;;;;;;;;;;4985145;28;99539;-77
2023/06/24 05:28:41;;;;;;;7.28;3.13;;;;;;;;;;4985315;28;98736;-77
2023/06/24 05:31:07;;;;;;;7.57;3.40;;;;;;;;;;4984228;28;99502;-77
2023/06/24 05:33:34;;;;;;;8.32;2.80;;;;;;;;;;4985472;28;97854;-76
2023/06/24 05:36:00;;;;;;;8.02;3.97;;;;;;;;;;4974031;28;99987;-77
2023/06/24 05:38:27;;;;;;;9.27;3.63;;;;;;;;;;4976598;28;100123;-77
2023/06/24 05:40:53;;;;;;;8.82;3.90;;;;;;;;;;4984884;28;99556;-76
2023/06/24 05:43:20;;;;;;;9.50;4.38;;;;;;;;;;4983347;28;102393;-77
2023/06/24 05:45:46;;;;;;;10.35;4.47;;;;;;;;;;4985880;28;99768;-76
2023/06/24 05:48:14;;;;;;;10.18;4.40;;;;;;;;;;4988984;28;98510;-77
2023/06/24 05:50:41;;;;;;;8.23;3.42;;;;;;;;;;4968474;28;99106;-77
2023/06/24 05:53:07;;;;;;;8.32;4.15;;;;;;;;;;4973184;28;98708;-77
2023/06/24 05:55:34;;;;;;;11.65;5.15;;;;;;;;;;4965301;28;98966;-77
2023/06/24 05:58:01;;;;;;;10.85;4.85;;;;;;;;;;4984090;28;98247;-77
2023/06/24 06:00:27;;;;;;;10.40;5.03;;;;;;;;;;4987528;28;99445;-77
2023/06/24 06:02:54;;;;;;;9.85;5.00;;;;;;;;;;4985827;28;99435;-77
2023/06/24 06:05:21;;;;;;;11.20;4.45;;;;;;;;;;4983426;28;99961;-75
2023/06/24 06:07:48;;;;;;;9.50;4.38;;;;;;;;;;4992278;28;99037;-76
2023/06/24 06:10:17;;;;;;;7.55;3.10;;;;;;;;;;4990944;28;98793;-76
2023/06/24 06:12:43;;;;;;;10.93;4.20;;;;;;;;;;4990966;28;98887;-75
2023/06/24 06:15:10;;;;;;;7.97;3.17;;;;;;;;;;4990782;28;98829;-76
2023/06/24 06:17:37;;;;;;;7.75;3.42;;;;;;;;;;4981426;28;99292;-76
2023/06/24 06:20:04;;;;;;;10.13;4.25;;;;;;;;;;4997914;28;99096;-76
2023/06/24 06:22:32;;;;;;;9.77;4.13;;;;;;;;;;4991187;28;99255;-76
2023/06/24 06:24:58;;;;;;;10.00;4.38;;;;;;;;;;4999508;28;98531;-80
2023/06/24 06:27:25;;;;;;;10.68;4.00;;;;;;;;;;4994294;28;98944;-77
2023/06/24 06:29:53;;;;;;;8.82;3.97;;;;;;;;;;4983033;28;99243;-75
2023/06/24 06:32:20;;;;;;;7.78;3.53;;;;;;;;;;4991486;28;98934;-75
2023/06/24 06:34:46;;;;;;;7.45;3.30;;;;;;;;;;4983456;28;98683;-76
2023/06/24 06:37:13;;;;;;;9.43;3.30;;;;;;;;;;4976158;28;99442;-76
2023/06/24 06:39:39;;;;;;;8.93;2.90;;;;;;;;;;4976103;28;98785;-76
2023/06/24 06:42:06;;;;;;;8.55;2.88;;;;;;;;;;4975750;28;98778;-76
2023/06/24 06:44:33;;;;;;;7.78;3.30;;;;;;;;;;4978951;28;99014;-75
2023/06/24 06:46:59;;;;;;;9.63;3.50;;;;;;;;;;4988616;28;97875;-78
2023/06/24 06:49:26;;;;;;;7.78;3.25;;;;;;;;;;4993011;28;99176;-75
2023/06/24 06:51:54;;;;;;;13.35;3.53;;;;;;;;;;4985063;28;101001;-75
2023/06/24 06:54:20;;;;;;;10.52;4.03;;;;;;;;;;4981762;28;99320;-76
2023/06/24 06:56:47;;;;;;;22.02;5.22;;;;;;;;;;4969956;28;99489;-76
2023/06/24 06:59:13;;;;;;;11.05;3.95;;;;;;;;;;4982850;28;98803;-76
2023/06/24 07:01:40;;;;;;;8.65;3.75;;;;;;;;;;4970702;28;99461;-77
2023/06/24 07:04:07;;;;;;;9.25;4.38;;;;;;;;;;4975066;28;99652;-76
2023/06/24 07:06:34;;;;;;;9.45;4.03;;;;;;;;;;4990327;28;98885;-76
2023/06/24 07:09:00;;;;;;;9.07;4.05;;;;;;;;;;4981204;28;100389;-76
2023/06/24 07:11:27;;;;;;;10.13;4.10;;;;;;;;;;4974249;28;101115;-77
2023/06/24 07:13:54;;;;;;;9.30;4.00;;;;;;;;;;4972125;28;98831;-77
2023/06/24 07:16:20;;;;;;;8.98;3.63;;;;;;;;;;4968163;28;99197;-77
2023/06/24 07:18:47;;;;;;;8.57;3.60;;;;;;;;;;4980684;28;99248;-76
2023/06/24 07:21:14;;;;;;;10.05;3.90;;;;;;;;;;4989440;28;100008;-76
2023/06/24 07:23:41;;;;;;;9.43;3.92;;;;;;;;;;4981638;28;103602;-77
2023/06/24 07:26:08;;;;;;;8.60;3.63;;;;;;;;;;4985182;28;99050;-76
2023/06/24 07:28:34;;;;;;;9.57;3.70;;;;;;;;;;4984210;28;99325;-76
2023/06/24 07:31:01;;;;;;;7.07;3.17;;;;;;;;;;4978332;28;99629;-76
2023/06/24 07:33:30;;;;;;;7.75;3.40;;;;;;;;;;4984482;28;99063;-76
2023/06/24 07:35:57;;;;;;;7.80;3.22;;;;;;;;;;4977051;28;99128;-77
2023/06/24 07:38:23;;;;;;;8.88;3.78;;;;;;;;;;4985166;28;99018;-77
2023/06/24 07:40:50;;;;;;;9.32;3.25;;;;;;;;;;4974881;28;99161;-77
2023/06/24 07:43:16;;;;;;;10.32;3.40;;;;;;;;;;4979195;28;99967;-75
2023/06/24 07:45:43;;;;;;;10.48;4.10;;;;;;;;;;4981507;28;98611;-78
2023/06/24 07:48:09;;;;;;;9.13;3.63;;;;;;;;;;4975362;28;98967;-77
2023/06/24 07:50:37;;;;;;;8.00;3.60;;;;;;;;;;4981378;28;101933;-77
2023/06/24 07:53:04;;;;;;;7.82;3.13;;;;;;;;;;4981864;28;98560;-76
2023/06/24 07:55:30;;;;;;;8.93;3.63;;;;;;;;;;4975949;28;99912;-77
2023/06/24 07:57:58;;;;;;;7.00;3.15;;;;;;;;;;4980368;28;98789;-78
2023/06/24 08:00:25;;;;;;;8.35;3.67;;;;;;;;;;4982371;28;99828;-78
2023/06/24 08:02:51;;;;;;;10.88;4.20;;;;;;;;;;4983176;28;98960;-79
2023/06/24 08:05:18;;;;;;;10.60;3.90;;;;;;;;;;4992114;28;99309;-77
2023/06/24 08:07:45;;;;;;;8.77;4.25;;;;;;;;;;4986376;28;99499;-78
2023/06/24 08:10:11;;;;;;;9.32;4.00;;;;;;;;;;4985222;28;100313;-78
2023/06/24 08:12:38;;;;;;;9.88;3.97;;;;;;;;;;4986532;28;100093;-78
2023/06/24 08:15:05;;;;;;;9.68;3.03;;;;;;;;;;4986386;28;99853;-80
2023/06/24 08:17:31;;;;;;;8.98;2.70;;;;;;;;;;4989594;28;99147;-79
2023/06/24 08:19:58;;;;;;;9.02;3.10;;;;;;;;;;4986713;28;98975;-77
2023/06/24 08:22:25;;;;;;;6.50;2.60;;;;;;;;;;4986355;28;99404;-76
2023/06/24 08:24:51;;;;;;;6.18;2.72;;;;;;;;;;4988284;28;97744;-76
2023/06/24 08:27:18;;;;;;;7.63;2.60;;;;;;;;;;4982344;28;98858;-75
2023/06/24 08:29:44;;;;;;;6.50;2.50;;;;;;;;;;4985644;28;99107;-77
2023/06/24 08:32:11;;;;;;;7.88;2.72;;;;;;;;;;4976308;28;100807;-76
2023/06/24 08:34:37;;;;;;;7.90;2.60;;;;;;;;;;4976769;28;99801;-77
2023/06/24 08:37:04;;;;;;;5.95;2.70;;;;;;;;;;4967543;28;100879;-76
2023/06/24 08:39:30;;;;;;;8.18;2.50;;;;;;;;;;4970949;28;98794;-77
2023/06/24 08:41:57;;;;;;;6.65;2.80;;;;;;;;;;4977023;28;99314;-76
2023/06/24 08:44:23;;;;;;;8.23;3.00;;;;;;;;;;4971505;28;99036;-76
2023/06/24 08:46:50;;;;;;;6.93;2.40;;;;;;;;;;4984270;28;102343;-76
2023/06/24 08:49:24;;;;;;;7.13;2.50;;;;;;;;;;4965004;28;99406;-75
2023/06/24 08:52:02;;;;;;;6.22;2.55;;;;;;;;;;4981446;28;99879;-76
2023/06/24 08:54:29;;;;;;;5.80;2.08;;;;;;;;;;4975892;28;100563;-76
2023/06/24 08:56:56;;;;;;;5.75;2.33;;;;;;;;;;4986104;28;99973;-76
2023/06/24 08:59:23;;;;;;;5.43;2.20;;;;;;;;;;4986534;28;98658;-76
2023/06/24 09:01:50;;;;;;;5.63;2.25;;;;;;;;;;4991416;28;99312;-75
2023/06/24 09:04:16;;;;;;;6.35;2.30;;;;;;;;;;4986909;28;98963;-75
2023/06/24 09:06:43;;;;;;;5.35;2.10;;;;;;;;;;4987444;28;98706;-76
2023/06/24 09:09:19;;;;;;;5.22;2.10;;;;;;;;;;4982512;28;99162;-75
2023/06/24 09:12:12;;;;;;;5.38;2.33;;;;;;;;;;4987046;28;98618;-76
2023/06/24 09:14:47;;;;;;;5.20;2.25;;;;;;;;;;4985991;28;98681;-76
2023/06/24 09:17:14;;;;;;;5.13;2.58;;;;;;;;;;5000803;28;99076;-76
2023/06/24 09:19:41;;;;;;;4.53;2.00;;;;;;;;;;5000273;28;99128;-75
2023/06/24 09:22:16;;;;;;;5.13;2.28;;;;;;;;;;4989947;28;99300;-76
2023/06/24 09:24:46;;;;;;;4.90;2.30;;;;;;;;;;4981578;28;99693;-76
2023/06/24 09:27:19;;;;;;;5.25;2.15;;;;;;;;;;4979441;28;101674;-75
2023/06/24 09:29:47;;;;;;;;;;;;;;;;;;4988715;28;103648;-76
2023/06/24 09:32:14;;;;;;;4.97;1.95;;;;;;;;;;5003824;28;98975;-75
2023/06/24 09:34:41;;;;;;;4.78;2.10;;;;;;;;;;4980941;28;100340;-77
2023/06/24 09:37:07;;;;;;;4.60;2.20;;;;;;;;;;4985941;28;99068;-77
2023/06/24 09:39:39;;;;;;;4.60;2.10;;;;;;;;;;4985762;28;97769;-76
2023/06/24 09:42:07;;;;;;;5.78;2.42;;;;;;;;;;4985556;28;98824;-77
2023/06/24 09:44:34;;;;;;;5.60;2.38;;;;;;;;;;4985922;28;99187;-74
2023/06/24 09:47:00;;;;;;;5.00;2.33;;;;;;;;;;4990231;28;99327;-76
2023/06/24 09:49:27;;;;;;;4.63;2.28;;;;;;;;;;4970557;28;99113;-76
2023/06/24 09:51:57;;;;;;;4.82;2.10;;;;;;;;;;4994862;28;98627;-76
2023/06/24 09:54:28;;;;;;;5.43;2.10;;;;;;;;;;4984410;28;103135;-76
2023/06/24 09:57:01;;;;;;;4.75;2.10;;;;;;;;;;4983936;28;98861;-76
2023/06/24 09:59:27;;;;;;;4.63;2.10;;;;;;;;;;4985391;28;98596;-76
2023/06/24 10:01:54;;;;;;;5.32;2.38;;;;;;;;;;4993917;28;99388;-76
2023/06/24 10:04:22;;;;;;;;;;;;;;;;;;4972389;28;99518;-76
2023/06/24 10:06:49;;;;;;;6.32;2.20;;;;;;;;;;4983239;28;106049;-77
2023/06/24 10:09:17;;;;;;;4.15;1.95;;;;;;;;;;4985152;28;99487;-76
2023/06/24 10:11:45;;;;;;;5.22;2.13;;;;;;;;;;4984813;28;99366;-75
2023/06/24 10:14:12;;;;;;;4.25;2.00;;;;;;;;;;4984411;28;100575;-76
2023/06/24 10:16:40;;;;;;;5.63;2.30;;;;;;;;;;4984910;28;99038;-76
2023/06/24 10:19:06;;;;;;;5.47;2.20;;;;;;;;;;4992364;28;98635;-76
2023/06/24 10:21:46;;;;;;;4.45;2.10;;;;;;;;;;4985239;28;99098;-76
2023/06/24 10:24:13;;;;;;;4.55;2.22;;;;;;;;;;4985829;28;99274;-77
2023/06/24 10:26:41;;;;;;;4.72;2.13;;;;;;;;;;4985609;28;98676;-76
2023/06/24 10:29:07;;;;;;;4.70;1.95;;;;;;;;;;4988535;28;99909;-76
2023/06/24 10:31:40;;;;;;;5.90;2.10;;;;;;;;;;4984862;28;98543;-76
2023/06/24 10:34:07;;;;;;;;;;;;;;;;;;4978333;28;99918;-75
2023/06/24 10:36:36;;;;;;;4.00;2.00;;;;;;;;;;4988619;28;99956;-76
2023/06/24 10:39:03;;;;;;;4.38;2.03;;;;;;;;;;4988100;28;99390;-75
2023/06/24 10:41:31;;;;;;;4.00;2.00;;;;;;;;;;4985021;28;99810;-75
2023/06/24 10:43:59;;;;;;;4.93;1.90;;;;;;;;;;4983976;28;99185;-76
2023/06/24 10:46:27;;;;;;;5.05;2.30;;;;;;;;;;4985236;28;98623;-77
2023/06/24 10:48:54;;;;;;;4.43;1.95;;;;;;;;;;4968605;28;99349;-77
2023/06/24 10:51:20;;;;;;;5.13;2.10;;;;;;;;;;4988597;28;100300;-75
2023/06/24 10:53:47;;;;;;;4.72;2.28;;;;;;;;;;4981872;28;98869;-75
2023/06/24 10:56:13;;;;;;;5.15;2.20;;;;;;;;;;4985270;28;100290;-76
2023/06/24 10:58:54;;;;;;;5.28;2.33;;;;;;;;;;4986406;28;98672;-77
2023/06/24 11:01:20;;;;;;;5.30;2.50;;;;;;;;;;4984037;28;99691;-76
2023/06/24 11:03:47;;;;;;;4.55;2.30;;;;;;;;;;4978655;28;100317;-77
2023/06/24 11:06:14;;;;;;;5.60;2.38;;;;;;;;;;4965115;28;98699;-76
2023/06/24 11:08:44;;;;;;;4.05;1.98;;;;;;;;;;4979474;28;99186;-76
2023/06/24 11:11:17;;;;;;;5.20;2.30;;;;;;;;;;4983663;28;99372;-77
2023/06/24 11:13:47;;;;;;;4.65;2.20;;;;;;;;;;4987816;28;98524;-77
2023/06/24 11:16:14;;;;;;;4.47;2.22;;;;;;;;;;4975703;28;99052;-77
2023/06/24 11:18:40;;;;;;;5.47;2.45;;;;;;;;;;4973655;28;98465;-77
2023/06/24 11:21:08;;;;;;;4.18;2.08;;;;;;;;;;4984861;28;98528;-77
2023/06/24 11:23:35;;;;;;;4.70;2.22;;;;;;;;;;4983338;28;100373;-76
2023/06/24 11:26:02;;;;;;;5.90;2.30;;;;;;;;;;4982996;28;99371;-75
2023/06/24 11:28:31;;;;;;;3.92;2.00;;;;;;;;;;4984561;28;100944;-75
2023/06/24 11:31:05;;;;;;;5.60;2.40;;;;;;;;;;4978629;28;100364;-77
2023/06/24 11:33:32;;;;;;;4.97;2.22;;;;;;;;;;4992814;28;98530;-76
2023/06/24 11:35:58;;;;;;;5.18;2.20;;;;;;;;;;4986996;28;98751;-77
2023/06/24 11:38:31;;;;;;;4.78;2.28;;;;;;;;;;4984265;28;98552;-77
2023/06/24 11:40:58;;;;;;;4.78;2.30;;;;;;;;;;4984271;28;99581;-77
2023/06/24 11:43:25;;;;;;;5.38;2.30;;;;;;;;;;4982753;28;98449;-76
2023/06/24 11:45:52;;;;;;;;;;;;;;;;;;4984895;28;98970;-76
2023/06/24 11:48:19;;;;;;;5.30;2.20;;;;;;;;;;4984916;28;99463;-76
2023/06/24 11:50:53;;;;;;;5.57;2.50;;;;;;;;;;4982656;28;100887;-76
2023/06/24 11:53:19;;;;;;;;;;;;;;;;;;4982486;28;98743;-78
2023/06/24 11:55:51;;;;;;;5.00;2.40;;;;;;;;;;4985825;28;100933;-76
2023/06/24 11:58:21;;;;;;;4.68;2.30;;;;;;;;;;4987097;28;99575;-77
2023/06/24 12:00:48;;;;;;;4.03;2.17;;;;;;;;;;4984306;28;98965;-76
2023/06/24 12:03:15;;;;;;;4.93;2.20;;;;;;;;;;4986393;28;100132;-76
2023/06/24 12:05:44;;;;;;;4.68;2.30;;;;;;;;;;4983419;28;98596;-76
2023/06/24 12:08:15;;;;;;;5.28;2.50;;;;;;;;;;4984754;28;98695;-76
2023/06/24 12:10:43;;;;;;;4.78;2.40;;;;;;;;;;4983131;28;102039;-76
2023/06/24 12:13:12;;;;;;;;;;;;;;;;;;4984802;28;99670;-76
2023/06/24 12:15:39;;;;;;;5.28;2.40;;;;;;;;;;4984843;28;99622;-76
2023/06/24 12:18:06;;;;;;;4.85;2.42;;;;;;;;;;4996117;28;105558;-78
2023/06/24 12:20:34;;;;;;;5.43;2.45;;;;;;;;;;4983575;28;100065;-76
2023/06/24 12:23:04;;;;;;;4.43;2.22;;;;;;;;;;4983924;28;99231;-77
2023/06/24 12:25:31;;;;;;;4.72;2.13;;;;;;;;;;4978106;28;99070;-76
2023/06/24 12:27:59;;;;;;;5.25;2.20;;;;;;;;;;4963428;28;101949;-77
2023/06/24 12:30:26;;;;;;;6.13;2.40;;;;;;;;;;4976071;28;101672;-77
2023/06/24 12:32:53;;;;;;;4.15;2.00;;;;;;;;;;5001842;28;97905;-75
2023/06/24 12:35:19;;;;;;;4.80;2.13;;;;;;;;;;4986347;28;98627;-76
2023/06/24 12:37:47;;;;;;;5.32;2.40;;;;;;;;;;4983862;28;98942;-77
2023/06/24 12:40:14;;;;;;;5.30;2.45;;;;;;;;;;4981785;28;99315;-78
2023/06/24 12:42:40;;;;;;;5.88;2.70;;;;;;;;;;4981163;28;100188;-77
2023/06/24 12:45:07;;;;;;;4.75;2.20;;;;;;;;;;4977267;28;98833;-77
2023/06/24 12:47:34;;;;;;;4.75;2.20;;;;;;;;;;4974378;28;98857;-77
2023/06/24 12:50:01;;;;;;;4.85;2.50;;;;;;;;;;4965749;28;100421;-77
2023/06/24 12:52:27;;;;;;;5.22;2.60;;;;;;;;;;4979393;28;98629;-77
2023/06/24 12:54:54;;;;;;;6.50;2.78;;;;;;;;;;4975238;28;98903;-78
2023/06/24 12:57:20;;;;;;;9.25;2.50;;;;;;;;;;4984853;28;99271;-77
2023/06/24 12:59:47;;;;;;;5.20;2.85;;;;;;;;;;4970584;28;98521;-77
2023/06/24 13:02:13;;;;;;;9.85;3.10;;;;;;;;;;4989236;28;99883;-77
2023/06/24 13:04:43;;;;;;;7.22;3.10;;;;;;;;;;4975160;28;99815;-78
2023/06/24 13:07:10;;;;;;;8.05;3.55;;;;;;;;;;4986162;28;100943;-78
2023/06/24 13:09:37;;;;;;;9.20;3.50;;;;;;;;;;4975955;28;98954;-78
2023/06/24 13:12:03;;;;;;;7.35;3.03;;;;;;;;;;4967605;28;98702;-78
2023/06/24 13:14:30;;;;;;;;;;;;;;;;;;4980005;28;98746;-78
2023/06/24 13:16:56;;;;;;;8.07;3.30;;;;;;;;;;4984969;28;125845;-78
2023/06/24 13:19:23;;;;;;;7.32;2.97;;;;;;;;;;4970908;28;98680;-77
2023/06/24 13:21:50;;;;;;;7.10;3.00;;;;;;;;;;4981389;28;99755;-78
2023/06/24 13:24:16;;;;;;;6.50;3.00;;;;;;;;;;4980661;28;99860;-78
2023/06/24 13:26:43;;;;;;;7.70;2.90;;;;;;;;;;4982096;28;99048;-78
2023/06/24 13:29:09;;;;;;;7.85;3.35;;;;;;;;;;4985454;28;100985;-78
2023/06/24 13:31:36;;;;;;;6.07;2.90;;;;;;;;;;4992307;28;98621;-78
2023/06/24 13:34:04;;;;;;;6.95;3.20;;;;;;;;;;4975420;28;98868;-77
2023/06/24 13:36:32;;;;;;;8.95;3.33;;;;;;;;;;4990382;28;99643;-78
2023/06/24 13:38:59;;;;;;;6.13;2.92;;;;;;;;;;4982469;28;98997;-77
2023/06/24 13:41:29;;;;;;;;;;;;;;;;;;4971141;28;99338;-77
2023/06/24 13:43:56;;;;;;;6.40;2.97;;;;;;;;;;4966285;28;113544;-77
2023/06/24 13:46:23;;;;;;;8.80;3.17;;;;;;;;;;4988769;28;97895;-77
2023/06/24 13:48:49;;;;;;;6.93;3.20;;;;;;;;;;4967740;28;99375;-78
2023/06/24 13:51:17;;;;;;;8.15;3.17;;;;;;;;;;4984194;28;98919;-76
2023/06/24 13:53:44;;;;;;;7.00;3.13;;;;;;;;;;4982132;28;99710;-77
2023/06/24 13:56:11;;;;;;;;;;;;;;;;;;4985332;28;106469;-79
2023/06/24 13:58:37;;;;;;;6.57;3.08;;;;;;;;;;4986998;28;98784;-76
2023/06/24 14:01:04;;;;;;;6.30;3.10;;;;;;;;;;4986682;28;98941;-76
2023/06/24 14:03:30;;;;;;;7.68;3.40;;;;;;;;;;4982689;28;99155;-77
2023/06/24 14:05:58;;;;;;;6.85;3.30;;;;;;;;;;4983228;28;98631;-78
2023/06/24 14:08:24;;;;;;;6.03;2.85;;;;;;;;;;4979089;28;98879;-78
2023/06/24 14:10:51;;;;;;;6.78;3.17;;;;;;;;;;4986199;28;99467;-78
2023/06/24 14:13:17;;;;;;;6.50;3.38;;;;;;;;;;4985940;28;99473;-77
2023/06/24 14:15:44;;;;;;;7.05;3.03;;;;;;;;;;4985697;28;99180;-78
2023/06/24 14:18:10;;;;;;;7.15;3.10;;;;;;;;;;4970953;28;99758;-79
2023/06/24 14:20:37;;;;;;;6.32;3.00;;;;;;;;;;4980503;28;99676;-77
2023/06/24 14:23:04;;;;;;;5.78;2.95;;;;;;;;;;4985251;28;100306;-76
2023/06/24 14:25:31;;;;;;;6.88;2.92;;;;;;;;;;4983952;28;105516;-77
2023/06/24 14:27:57;;;;;;;7.25;2.97;;;;;;;;;;4989899;28;98709;-77
2023/06/24 14:30:24;;;;;;;6.28;2.95;;;;;;;;;;4984484;28;98853;-77
2023/06/24 14:32:51;;;;;;;6.28;3.05;;;;;;;;;;4976615;28;99890;-78
2023/06/24 14:35:17;;;;;;;6.43;3.15;;;;;;;;;;4992332;28;98715;-77
2023/06/24 14:37:44;;;;;;;7.70;3.20;;;;;;;;;;4994401;28;98551;-77
2023/06/24 14:40:10;;;;;;;7.13;2.90;;;;;;;;;;4994563;28;99330;-77
2023/06/24 14:42:37;;;;;;;7.55;3.28;;;;;;;;;;4992761;28;99631;-78
2023/06/24 14:45:04;;;;;;;6.78;3.60;;;;;;;;;;4993477;28;98456;-76